createdAt,value
2022-11-05T00:02:09.211Z,55.10
2022-11-05T00:04:35.946Z,55.30
2022-11-05T00:07:10.541Z,55.20
2022-11-05T00:09:37.381Z,55.20
2022-11-05T00:12:06.202Z,55.00
2022-11-05T00:14:32.950Z,55.00
2022-11-05T00:17:01.029Z,55.10
2022-11-05T00:19:27.767Z,55.00
2022-11-05T00:21:54.487Z,55.00
2022-11-05T00:24:24.278Z,54.90
2022-11-05T00:26:51.189Z,55.00
2022-11-05T00:29:17.894Z,54.90
2022-11-05T00:31:44.593Z,54.90
2022-11-05T00:34:12.638Z,54.90
2022-11-05T00:36:39.332Z,55.00
2022-11-05T00:39:06.266Z,54.80
2022-11-05T00:41:32.984Z,54.70
2022-11-05T00:43:59.837Z,54.70
2022-11-05T00:46:26.600Z,54.80
2022-11-05T00:48:53.326Z,55.00
2022-11-05T00:51:21.366Z,55.00
2022-11-05T00:53:48.136Z,54.80
2022-11-05T00:56:14.899Z,54.80
2022-11-05T00:58:41.640Z,54.80
2022-11-05T01:01:10.519Z,55.00
2022-11-05T01:03:39.337Z,55.10
2022-11-05T01:06:07.950Z,55.10
2022-11-05T01:08:36.342Z,55.00
2022-11-05T01:11:09.970Z,55.20
2022-11-05T01:13:37.238Z,55.50
2022-11-05T01:16:07.296Z,55.40
2022-11-05T01:18:34.293Z,55.40
2022-11-05T01:21:10.052Z,55.60
2022-11-05T01:23:38.137Z,55.60
2022-11-05T01:26:05.404Z,56.00
2022-11-05T01:28:32.195Z,55.80
2022-11-05T01:30:59.214Z,55.70
2022-11-05T01:33:46.212Z,55.80
2022-11-05T01:36:12.927Z,55.50
2022-11-05T01:38:41.039Z,55.40
2022-11-05T01:41:08.424Z,55.50
2022-11-05T01:43:47.592Z,55.40
2022-11-05T01:46:15.537Z,55.30
2022-11-05T01:48:42.284Z,55.00
2022-11-05T01:51:11.775Z,55.00
2022-11-05T01:53:42.825Z,55.00
2022-11-05T01:56:12.927Z,55.20
2022-11-05T01:58:44.701Z,55.20
2022-11-05T02:01:12.142Z,55.20
2022-11-05T02:03:39.744Z,55.10
2022-11-05T02:06:06.892Z,55.10
2022-11-05T02:08:44.773Z,55.10
2022-11-05T02:11:12.856Z,55.20
2022-11-05T02:13:39.921Z,55.20
2022-11-05T02:16:14.417Z,55.20
2022-11-05T02:18:54.377Z,55.40
2022-11-05T02:21:56.473Z,56.00
2022-11-05T02:24:50.228Z,55.30
2022-11-05T02:27:24.102Z,55.40
2022-11-05T02:30:18.360Z,55.40
2022-11-05T02:33:09.530Z,55.20
2022-11-05T02:36:02.156Z,55.20
2022-11-05T02:38:39.052Z,55.00
2022-11-05T02:41:13.082Z,55.00
2022-11-05T02:43:52.150Z,54.90
2022-11-05T02:46:27.507Z,54.90
2022-11-05T02:49:01.849Z,55.10
2022-11-05T02:51:38.910Z,55.00
2022-11-05T02:54:13.636Z,55.00
2022-11-05T02:56:43.938Z,55.00
2022-11-05T02:59:10.891Z,54.70
2022-11-05T03:01:39.592Z,54.40
2022-11-05T03:04:12.842Z,54.30
2022-11-05T03:07:03.710Z,54.40
2022-11-05T03:10:02.630Z,54.30
2022-11-05T03:12:38.917Z,54.00
2022-11-05T03:15:16.477Z,54.20
2022-11-05T03:17:50.923Z,54.10
2022-11-05T03:20:23.770Z,53.90
2022-11-05T03:22:54.923Z,54.00
2022-11-05T03:25:24.066Z,54.10
2022-11-05T03:27:55.676Z,54.00
2022-11-05T03:30:22.500Z,54.20
2022-11-05T03:32:53.697Z,54.10
2022-11-05T03:35:25.647Z,54.00
2022-11-05T03:37:56.628Z,53.80
2022-11-05T03:40:24.922Z,53.90
2022-11-05T03:42:56.247Z,53.90
2022-11-05T03:45:31.432Z,54.00
2022-11-05T03:48:01.264Z,54.00
2022-11-05T03:50:35.876Z,53.80
2022-11-05T03:53:15.289Z,54.10
2022-11-05T03:55:48.135Z,54.10
2022-11-05T03:58:16.200Z,54.00
2022-11-05T04:00:43.134Z,53.80
2022-11-05T04:03:10.338Z,53.70
2022-11-05T04:05:38.990Z,53.60
2022-11-05T04:08:08.776Z,53.70
2022-11-05T04:10:39.847Z,53.60
2022-11-05T04:13:08.646Z,53.40
2022-11-05T04:15:35.557Z,53.50
2022-11-05T04:18:02.300Z,53.60
2022-11-05T04:20:29.053Z,53.80
2022-11-05T04:23:01.620Z,53.70
2022-11-05T04:25:28.363Z,53.90
2022-11-05T04:27:59.327Z,53.90
2022-11-05T04:30:26.620Z,53.80
2022-11-05T04:33:02.152Z,53.80
2022-11-05T04:35:31.554Z,54.00
2022-11-05T04:37:59.749Z,53.80
2022-11-05T04:40:26.558Z,53.90
2022-11-05T04:42:54.251Z,54.00
2022-11-05T04:45:21.323Z,54.30
2022-11-05T04:47:48.030Z,54.30
2022-11-05T04:50:14.924Z,54.30
2022-11-05T04:52:41.952Z,54.30
2022-11-05T04:55:10.572Z,54.10
2022-11-05T04:57:37.482Z,54.10
2022-11-05T05:00:05.132Z,53.80
2022-11-05T05:02:31.938Z,54.20
2022-11-05T05:04:58.694Z,54.20
2022-11-05T05:07:25.485Z,54.10
2022-11-05T05:09:52.201Z,54.10
2022-11-05T05:12:20.310Z,54.10
2022-11-05T05:14:47.766Z,53.90
2022-11-05T05:17:14.518Z,53.80
2022-11-05T05:19:41.273Z,53.70
2022-11-05T05:22:08.008Z,53.60
2022-11-05T05:24:34.780Z,53.40
2022-11-05T05:27:01.489Z,54.40
2022-11-05T05:29:29.542Z,53.60
2022-11-05T05:31:56.303Z,53.90
2022-11-05T05:34:23.072Z,54.00
2022-11-05T05:36:49.771Z,54.00
2022-11-05T05:39:16.611Z,54.20
2022-11-05T05:41:43.375Z,54.10
2022-11-05T05:44:10.221Z,53.80
2022-11-05T05:46:38.464Z,53.70
2022-11-05T05:49:11.085Z,53.80
2022-11-05T05:51:38.894Z,53.50
2022-11-05T05:54:05.871Z,53.40
2022-11-05T05:56:32.600Z,53.50
2022-11-05T05:58:59.297Z,53.50
2022-11-05T06:01:26.186Z,53.40
2022-11-05T06:03:54.366Z,53.90
2022-11-05T06:06:21.212Z,53.30
2022-11-05T06:08:48.353Z,53.30
2022-11-05T06:11:15.123Z,53.20
2022-11-05T06:13:41.891Z,53.10
2022-11-05T06:16:09.821Z,53.20
2022-11-05T06:18:38.033Z,53.00
2022-11-05T06:21:07.684Z,53.00
2022-11-05T06:23:35.815Z,53.00
2022-11-05T06:26:03.386Z,53.00
2022-11-05T06:28:30.185Z,53.00
2022-11-05T06:30:57.505Z,53.00
2022-11-05T06:33:24.770Z,53.10
2022-11-05T06:35:51.936Z,53.00
2022-11-05T06:38:20.349Z,53.00
2022-11-05T06:40:47.108Z,53.10
2022-11-05T06:43:14.295Z,53.30
2022-11-05T06:45:41.545Z,53.30
2022-11-05T06:48:08.510Z,53.70
2022-11-05T06:50:35.308Z,53.60
2022-11-05T06:53:03.754Z,53.80
2022-11-05T06:55:32.217Z,53.90
2022-11-05T06:57:59.024Z,53.70
2022-11-05T07:00:25.846Z,53.60
2022-11-05T07:02:52.706Z,53.50
2022-11-05T07:05:19.458Z,53.60
2022-11-05T07:07:46.446Z,53.40
2022-11-05T07:10:16.628Z,53.50
2022-11-05T07:12:44.818Z,53.50
2022-11-05T07:15:12.620Z,53.70
2022-11-05T07:17:39.492Z,53.90
2022-11-05T07:20:08.405Z,54.00
2022-11-05T07:22:36.115Z,54.10
2022-11-05T07:25:03.465Z,54.20
2022-11-05T07:27:30.245Z,54.10
2022-11-05T07:29:58.351Z,54.30
2022-11-05T07:32:25.067Z,54.30
2022-11-05T07:34:51.855Z,54.20
2022-11-05T07:37:18.615Z,54.50
2022-11-05T07:39:45.327Z,54.30
2022-11-05T07:42:12.940Z,54.40
2022-11-05T07:44:39.793Z,55.10
2022-11-05T07:47:07.949Z,54.80
2022-11-05T07:49:34.731Z,55.00
2022-11-05T07:52:01.483Z,55.20
2022-11-05T07:54:28.255Z,55.00
2022-11-05T07:56:55.056Z,55.30
2022-11-05T07:59:21.871Z,55.40
2022-11-05T08:01:48.848Z,55.60
2022-11-05T08:04:17.101Z,56.10
2022-11-05T08:06:43.970Z,56.50
2022-11-05T08:09:10.970Z,56.60
2022-11-05T08:11:37.717Z,56.80
2022-11-05T08:14:04.609Z,57.00
2022-11-05T08:16:31.368Z,57.00
2022-11-05T08:18:58.160Z,57.50
2022-11-05T08:21:26.365Z,57.50
2022-11-05T08:23:53.203Z,57.60
2022-11-05T08:26:20.024Z,57.90
2022-11-05T08:28:46.758Z,57.80
2022-11-05T08:31:13.560Z,57.50
2022-11-05T08:33:40.313Z,58.00
2022-11-05T08:36:07.480Z,57.50
2022-11-05T08:38:35.662Z,58.20
2022-11-05T08:41:02.397Z,59.10
2022-11-05T08:43:29.176Z,58.00
2022-11-05T08:45:56.057Z,59.30
2022-11-05T08:48:22.908Z,59.30
2022-11-05T08:50:49.692Z,58.90
2022-11-05T08:53:16.650Z,58.10
2022-11-05T08:55:45.053Z,58.00
2022-11-05T08:58:13.590Z,58.60
2022-11-05T09:00:40.845Z,58.50
2022-11-05T09:03:09.738Z,58.40
2022-11-05T09:05:38.779Z,58.10
2022-11-05T09:08:06.006Z,57.50
2022-11-05T09:10:33.113Z,57.60
2022-11-05T09:13:01.233Z,58.00
2022-11-05T09:15:28.165Z,57.80
2022-11-05T09:17:55.743Z,57.50
2022-11-05T09:20:22.944Z,57.50
2022-11-05T09:22:49.803Z,57.70
2022-11-05T09:25:16.766Z,57.70
2022-11-05T09:27:43.781Z,57.60
2022-11-05T09:30:13.888Z,57.60
2022-11-05T09:32:41.321Z,57.70
2022-11-05T09:35:08.961Z,57.40
2022-11-05T09:37:36.364Z,57.20
2022-11-05T09:40:03.806Z,56.80
2022-11-05T09:42:43.947Z,56.80
2022-11-05T09:45:17.071Z,56.60
2022-11-05T09:47:48.057Z,57.50
2022-11-05T09:50:17.545Z,56.90
2022-11-05T09:52:45.177Z,56.80
2022-11-05T09:55:20.668Z,56.60
2022-11-05T09:57:52.572Z,56.40
2022-11-05T10:00:20.868Z,56.40
2022-11-05T10:02:50.010Z,56.10
2022-11-05T10:05:18.113Z,55.90
2022-11-05T10:07:48.705Z,55.90
2022-11-05T10:10:40.376Z,55.50
2022-11-05T10:13:14.021Z,55.60
2022-11-05T10:15:50.579Z,55.50
2022-11-05T10:18:30.402Z,55.30
2022-11-05T10:20:57.279Z,55.20
2022-11-05T10:23:27.241Z,55.10
2022-11-05T10:25:56.534Z,54.80
2022-11-05T10:28:25.268Z,55.30
2022-11-05T10:30:58.120Z,55.00
2022-11-05T10:33:33.611Z,55.00
2022-11-05T10:36:05.127Z,55.40
2022-11-05T10:38:32.771Z,54.80
2022-11-05T10:41:09.620Z,55.20
2022-11-05T10:43:42.204Z,54.40
2022-11-05T10:46:28.261Z,54.30
2022-11-05T10:49:10.708Z,54.40
2022-11-05T10:51:38.294Z,54.10
2022-11-05T10:54:12.061Z,53.70
2022-11-05T10:56:40.608Z,53.60
2022-11-05T10:59:21.258Z,53.30
2022-11-05T11:01:56.408Z,53.70
2022-11-05T11:04:25.400Z,54.30
2022-11-05T11:06:54.175Z,53.50
2022-11-05T11:09:27.296Z,52.70
2022-11-05T11:12:01.898Z,52.90
2022-11-05T11:14:29.409Z,52.60
2022-11-05T11:17:17.614Z,51.90
2022-11-05T11:19:44.444Z,51.80
2022-11-05T11:22:21.632Z,52.60
2022-11-05T11:24:51.121Z,52.20
2022-11-05T11:27:22.637Z,52.10
2022-11-05T11:29:55.051Z,52.40
2022-11-05T11:32:27.311Z,53.20
2022-11-05T11:34:55.321Z,52.20
2022-11-05T11:37:26.430Z,52.10
2022-11-05T11:39:56.801Z,51.30
2022-11-05T11:42:29.530Z,52.10
2022-11-05T11:44:58.230Z,52.40
2022-11-05T11:47:28.312Z,51.70
2022-11-05T11:49:56.920Z,51.40
2022-11-05T11:52:30.385Z,51.90
2022-11-05T11:55:18.467Z,51.10
2022-11-05T11:57:47.247Z,50.00
2022-11-05T12:00:15.027Z,50.00
2022-11-05T12:03:10.346Z,49.90
2022-11-05T12:05:43.837Z,50.30
2022-11-05T12:08:35.974Z,51.60
2022-11-05T12:11:08.603Z,51.20
2022-11-05T12:13:59.401Z,51.20
2022-11-05T12:16:42.178Z,50.40
2022-11-05T12:19:22.696Z,50.60
2022-11-05T12:21:58.433Z,50.90
2022-11-05T12:24:51.789Z,50.70
2022-11-05T12:27:31.246Z,50.60
2022-11-05T12:30:02.529Z,50.80
2022-11-05T12:32:42.576Z,51.00
2022-11-05T12:35:33.217Z,50.70
2022-11-05T12:38:09.077Z,50.60
2022-11-05T12:40:46.727Z,50.60
2022-11-05T12:43:20.134Z,50.30
2022-11-05T12:45:57.548Z,50.30
2022-11-05T12:49:01.222Z,50.50
2022-11-05T12:51:47.932Z,50.50
2022-11-05T12:54:25.543Z,50.80
2022-11-05T12:56:55.677Z,51.30
2022-11-05T12:59:26.669Z,50.40
2022-11-05T13:01:57.656Z,50.20
2022-11-05T13:04:34.286Z,50.10
2022-11-05T13:07:06.436Z,49.70
2022-11-05T13:09:38.653Z,50.40
2022-11-05T13:12:08.765Z,50.70
2022-11-05T13:14:42.303Z,50.60
2022-11-05T13:17:14.636Z,50.30
2022-11-05T13:19:49.713Z,49.40
2022-11-05T13:22:27.032Z,49.30
2022-11-05T13:24:57.782Z,49.10
2022-11-05T13:27:43.710Z,49.10
2022-11-05T13:30:17.665Z,48.90
2022-11-05T13:32:47.297Z,49.50
2022-11-05T13:35:17.707Z,49.50
2022-11-05T13:37:51.237Z,49.30
2022-11-05T13:40:22.237Z,49.60
2022-11-05T13:43:04.700Z,49.80
2022-11-05T13:46:08.113Z,49.70
2022-11-05T13:48:54.014Z,49.60
2022-11-05T13:51:39.374Z,49.40
2022-11-05T13:54:42.754Z,49.90
2022-11-05T13:57:28.824Z,50.00
2022-11-05T14:00:05.355Z,50.10
2022-11-05T14:02:39.883Z,50.10
2022-11-05T14:05:07.824Z,49.90
2022-11-05T14:07:36.580Z,50.20
2022-11-05T14:10:13.656Z,50.00
2022-11-05T14:12:41.017Z,50.20
2022-11-05T14:15:17.571Z,50.10
2022-11-05T14:17:56.098Z,50.20
2022-11-05T14:20:56.731Z,49.40
2022-11-05T14:23:51.616Z,49.50
2022-11-05T14:26:22.655Z,49.20
2022-11-05T14:28:51.699Z,49.50
2022-11-05T14:32:02.837Z,49.60
2022-11-05T14:34:23.480Z,49.50
2022-11-05T14:37:17.532Z,49.60
2022-11-05T14:39:44.478Z,49.80
2022-11-05T14:42:17.214Z,50.20
2022-11-05T14:44:58.925Z,49.70
2022-11-05T14:47:29.968Z,49.60
2022-11-05T14:50:03.207Z,49.20
2022-11-05T14:52:30.184Z,49.30
2022-11-05T14:54:58.220Z,49.20
2022-11-05T14:58:02.633Z,49.40
2022-11-05T15:00:47.876Z,49.50
2022-11-05T15:03:36.274Z,49.50
2022-11-05T15:06:20.882Z,49.60
2022-11-05T15:09:17.847Z,49.50
2022-11-05T15:11:57.166Z,49.40
2022-11-05T15:14:30.209Z,49.90
2022-11-05T15:17:03.431Z,49.90
2022-11-05T15:19:34.050Z,49.90
2022-11-05T15:22:04.178Z,50.10
2022-11-05T15:24:31.739Z,50.10
2022-11-05T15:27:04.456Z,50.20
2022-11-05T15:29:32.929Z,50.30
2022-11-05T15:32:01.119Z,50.30
2022-11-05T15:34:30.100Z,50.50
2022-11-05T15:36:59.183Z,50.50
2022-11-05T15:39:37.932Z,50.60
2022-11-05T15:42:07.022Z,50.70
2022-11-05T15:44:38.317Z,50.80
2022-11-05T15:47:11.006Z,50.90
2022-11-05T15:49:38.004Z,50.70
2022-11-05T15:52:04.936Z,50.90
2022-11-05T15:54:32.036Z,50.80
2022-11-05T15:56:59.985Z,50.70
2022-11-05T15:59:29.414Z,50.70
2022-11-05T16:02:04.467Z,50.80
2022-11-05T16:04:34.823Z,50.70
2022-11-05T16:07:08.106Z,51.40
2022-11-05T16:09:38.351Z,50.80
2022-11-05T16:12:23.431Z,50.80
2022-11-05T16:14:58.525Z,50.70
2022-11-05T16:17:26.996Z,50.80
2022-11-05T16:19:55.137Z,51.00
2022-11-05T16:22:22.633Z,51.00
2022-11-05T16:24:49.585Z,51.00
2022-11-05T16:27:19.808Z,51.00
2022-11-05T16:29:50.626Z,50.90
2022-11-05T16:32:25.301Z,50.90
2022-11-05T16:34:59.190Z,50.90
2022-11-05T16:37:26.729Z,51.00
2022-11-05T16:39:53.775Z,51.10
2022-11-05T16:42:38.126Z,51.10
2022-11-05T16:45:05.916Z,50.90
2022-11-05T16:47:32.807Z,51.10
2022-11-05T16:50:01.178Z,51.10
2022-11-05T16:52:28.263Z,51.10
2022-11-05T16:54:55.022Z,51.20
2022-11-05T16:57:25.816Z,51.20
2022-11-05T16:59:52.935Z,51.30
2022-11-05T17:02:19.812Z,51.30
2022-11-05T17:04:47.026Z,51.30
2022-11-05T17:07:15.257Z,51.30
2022-11-05T17:09:42.097Z,51.30
2022-11-05T17:12:09.788Z,51.40
2022-11-05T17:14:36.976Z,51.40
2022-11-05T17:17:04.519Z,51.60
2022-11-05T17:19:31.613Z,51.50
2022-11-05T17:21:58.386Z,51.50
2022-11-05T17:24:26.545Z,51.50
2022-11-05T17:26:53.318Z,51.60
2022-11-05T17:29:20.074Z,51.70
2022-11-05T17:31:46.782Z,51.90
2022-11-05T17:34:13.585Z,52.00
2022-11-05T17:36:40.315Z,52.20
2022-11-05T17:39:07.053Z,52.10
2022-11-05T17:41:35.106Z,52.10
2022-11-05T17:44:01.900Z,52.40
2022-11-05T17:46:28.658Z,53.00
2022-11-05T17:48:55.495Z,52.50
2022-11-05T17:51:22.289Z,52.50
2022-11-05T17:53:49.208Z,52.50
2022-11-05T17:56:27.190Z,52.40
2022-11-05T17:59:01.773Z,52.30
2022-11-05T18:01:30.619Z,52.40
2022-11-05T18:03:57.523Z,52.30
2022-11-05T18:06:24.387Z,52.30
2022-11-05T18:08:51.157Z,52.40
2022-11-05T18:11:17.878Z,52.50
2022-11-05T18:13:44.695Z,52.50
2022-11-05T18:16:12.942Z,52.60
2022-11-05T18:18:41.476Z,52.60
2022-11-05T18:21:10.119Z,52.70
2022-11-05T18:23:36.813Z,52.50
2022-11-05T18:26:08.569Z,52.40
2022-11-05T18:28:35.501Z,52.40
2022-11-05T18:31:02.337Z,52.30
2022-11-05T18:33:30.929Z,52.30
2022-11-05T18:35:57.656Z,52.30
2022-11-05T18:38:24.394Z,52.20
2022-11-05T18:40:51.131Z,52.10
2022-11-05T18:43:17.853Z,52.10
2022-11-05T18:45:44.609Z,52.20
2022-11-05T18:48:11.703Z,52.10
2022-11-05T18:50:40.477Z,52.10
2022-11-05T18:53:07.182Z,52.10
2022-11-05T18:55:33.943Z,52.10
2022-11-05T18:58:00.677Z,52.10
2022-11-05T19:00:27.422Z,52.20
2022-11-05T19:02:54.613Z,52.30
2022-11-05T19:05:29.938Z,52.30
2022-11-05T19:07:58.484Z,52.40
2022-11-05T19:10:25.731Z,52.50
2022-11-05T19:12:52.784Z,52.40
2022-11-05T19:15:19.531Z,52.50
2022-11-05T19:17:46.288Z,52.50
2022-11-05T19:20:13.365Z,52.50
2022-11-05T19:22:40.271Z,52.50
2022-11-05T19:25:08.737Z,52.60
2022-11-05T19:27:36.066Z,52.50
2022-11-05T19:30:03.089Z,52.40
2022-11-05T19:32:29.879Z,52.50
2022-11-05T19:34:56.635Z,52.50
2022-11-05T19:37:23.342Z,52.50
2022-11-05T19:39:50.077Z,52.40
2022-11-05T19:42:18.272Z,52.50
2022-11-05T19:44:45.010Z,52.60
2022-11-05T19:47:11.775Z,52.50
2022-11-05T19:49:38.576Z,52.50
2022-11-05T19:52:05.455Z,52.60
2022-11-05T19:54:32.250Z,52.60
2022-11-05T19:56:59.011Z,52.60
2022-11-05T19:59:27.246Z,52.50
2022-11-05T20:01:54.187Z,52.50
2022-11-05T20:04:20.998Z,52.60
2022-11-05T20:06:47.817Z,52.50
2022-11-05T20:09:23.105Z,52.50
2022-11-05T20:11:50.624Z,52.50
2022-11-05T20:14:17.456Z,52.50
2022-11-05T20:16:46.431Z,52.30
2022-11-05T20:19:14.896Z,52.20
2022-11-05T20:21:41.947Z,52.20
2022-11-05T20:24:10.373Z,52.30
2022-11-05T20:26:37.128Z,52.40
2022-11-05T20:29:04.243Z,52.30
2022-11-05T20:31:31.068Z,52.30
2022-11-05T20:33:59.171Z,52.50
2022-11-05T20:36:26.281Z,52.20
2022-11-05T20:38:55.014Z,52.30
2022-11-05T20:41:22.463Z,52.10
2022-11-05T20:43:49.607Z,52.40
2022-11-05T20:46:18.203Z,52.20
2022-11-05T20:48:45.296Z,52.20
2022-11-05T20:51:16.099Z,52.10
2022-11-05T20:53:43.744Z,52.10
2022-11-05T20:56:16.623Z,52.10
2022-11-05T20:58:43.550Z,52.10
2022-11-05T21:01:11.982Z,52.10
2022-11-05T21:03:38.913Z,52.20
2022-11-05T21:06:05.971Z,52.40
2022-11-05T21:08:34.784Z,52.30
2022-11-05T21:11:01.934Z,52.30
2022-11-05T21:13:28.943Z,52.20
2022-11-05T21:15:57.668Z,52.10
2022-11-05T21:18:27.017Z,52.20
2022-11-05T21:20:54.185Z,52.20
2022-11-05T21:23:20.964Z,52.10
2022-11-05T21:25:49.050Z,52.00
2022-11-05T21:28:16.314Z,52.20
2022-11-05T21:30:44.908Z,52.10
2022-11-05T21:33:12.417Z,52.00
2022-11-05T21:35:39.474Z,52.10
2022-11-05T21:38:06.211Z,52.20
2022-11-05T21:40:32.927Z,52.20
2022-11-05T21:43:01.031Z,52.20
2022-11-05T21:45:27.908Z,52.30
2022-11-05T21:47:54.649Z,52.10
2022-11-05T21:50:22.138Z,52.20
2022-11-05T21:52:48.928Z,52.10
2022-11-05T21:55:15.748Z,52.30
2022-11-05T21:57:42.752Z,52.20
2022-11-05T22:00:12.177Z,52.10
2022-11-05T22:02:39.192Z,52.20
2022-11-05T22:05:07.187Z,52.20
2022-11-05T22:07:37.032Z,52.20
2022-11-05T22:10:09.742Z,52.20
2022-11-05T22:12:39.984Z,52.00
2022-11-05T22:15:07.655Z,52.20
2022-11-05T22:17:35.759Z,52.20
2022-11-05T22:20:03.067Z,52.40
2022-11-05T22:22:29.799Z,52.20
2022-11-05T22:24:56.577Z,52.40
2022-11-05T22:27:23.365Z,52.40
2022-11-05T22:29:50.406Z,52.40
2022-11-05T22:32:18.562Z,52.40
2022-11-05T22:34:47.693Z,52.30
2022-11-05T22:37:14.440Z,52.30
2022-11-05T22:39:41.158Z,52.60
2022-11-05T22:42:08.865Z,52.30
2022-11-05T22:44:36.772Z,52.20
2022-11-05T22:47:03.861Z,52.30
2022-11-05T22:49:30.582Z,52.30
2022-11-05T22:51:58.654Z,52.20
2022-11-05T22:54:25.470Z,52.30
2022-11-05T22:56:52.194Z,52.10
2022-11-05T22:59:19.237Z,52.10
2022-11-05T23:01:46.771Z,52.30
2022-11-05T23:04:14.420Z,52.30
2022-11-05T23:06:41.869Z,52.10
2022-11-05T23:09:14.189Z,52.10
2022-11-05T23:11:42.741Z,52.20
2022-11-05T23:14:11.470Z,52.30
2022-11-05T23:16:38.793Z,52.40
2022-11-05T23:19:05.872Z,52.30
2022-11-05T23:21:32.642Z,52.10
2022-11-05T23:23:59.377Z,52.30
2022-11-05T23:26:27.521Z,52.40
2022-11-05T23:28:54.291Z,52.40
2022-11-05T23:31:21.031Z,52.40
2022-11-05T23:33:47.713Z,52.20
2022-11-05T23:36:14.422Z,52.20
2022-11-05T23:38:41.153Z,52.00
2022-11-05T23:41:07.953Z,51.90
2022-11-05T23:43:36.048Z,52.20
2022-11-05T23:46:02.741Z,52.30
2022-11-05T23:48:32.059Z,52.40
2022-11-05T23:51:01.045Z,52.30
2022-11-05T23:53:28.987Z,52.40
2022-11-05T23:56:00.360Z,52.20
2022-11-05T23:58:27.158Z,52.30
